Terminal Aerodrome Forecast
Issued by NWS

Home | Current Version | Previous Version | Text Only | Print | Product List | Glossary On
Versions: 1 2 3 4 5 6 7 8 9 10 11 12 13 14 15 16 17 18 19 20
185
FTUS41 KPBZ 240917 AAA
TAFMGW
TAF AMD
KMGW 240917Z 2409/2506 23005KT 4SM -RA BKN009
     FM241030 24007KT P6SM BKN012
     FM241200 25006KT P6SM SCT050
     FM241600 28008G16KT P6SM SCT250
     FM250100 27004KT P6SM SCT250=

USA.gov is the U.S. government's official web portal to all federal, state and local government web resources and services.